Flight Track Log - Related Links

Times and Time Zones

All times are in EDT time to prevent confusion due to time zone crossing. See the TCF3577 flight status page for this flight to view local times or setup timezone preferences in your user account.

Time Position Orientation Groundspeed Altitude Reporting Facility
EDT Latitude Longitude Course Direction KTS MPH feet Rate Location/Type
Sat 10:59:40 AM 40.7167 -74.1500 316° Northwest 156 180 1,300  Level New TRACON
Sat 11:00:40 AM 40.7500 -74.1667 339° North 184 212 3,300 2,289 Climbing New TRACON
Sat 11:02:12 AM 40.8142 -74.2586 313° West 217 250 7,100 2,526 Climbing New Center
Sat 11:03:00 AM 40.9487 -74.4747 319° Northwest  Level FlightAware
Sat 11:03:12 AM 40.8583 -74.3186 314° West 238 274 9,700  Level New Center
Sat 11:04:00 AM 41.0153 -74.5529 316° Northwest  Level FlightAware
Sat 11:04:12 AM 40.9164 -74.3958 315° West 260 299 11,600  Level New Center
Sat 11:05:00 AM 41.0792 -74.6350 316° Northwest  Level FlightAware
Sat 11:05:12 AM 40.9683 -74.4672 314° West 289 333 13,600  Level New Center
Sat 11:06:12 AM 41.0303 -74.5503 315° West 296 341 16,500 2,200 Climbing New Center
Sat 11:07:12 AM 41.0822 -74.6194 315° West 296 341 18,000 1,500 Climbing New Center
Sat 11:08:12 AM 41.1439 -74.7083 313° West 301 346 19,500 1,600 Climbing New Center
Sat 11:09:12 AM 41.1864 -74.8072 300° West 310 357 21,200 1,650 Climbing New Center
Sat 11:10:12 AM 41.2306 -74.9119 299° West 316 364 22,800 1,500 Climbing New Center
Sat 11:11:12 AM 41.2747 -75.0167 299° West 321 369 24,200 1,350 Climbing New Center
Sat 11:12:12 AM 41.3211 -75.1219 300° West 326 375 25,500 1,300 Climbing New Center
Sat 11:13:12 AM 41.3669 -75.2325 299° West 326 375 26,800 1,250 Climbing New Center
Sat 11:14:12 AM 41.4147 -75.3408 300° West 338 389 28,000 1,150 Climbing New Center
Sat 11:15:12 AM 41.4644 -75.4550 300° West 343 395 29,100 1,150 Climbing New Center
Sat 11:16:12 AM 41.5033 -75.5769 293° West 348 400 30,300 1,100 Climbing New Center
Sat 11:17:12 AM 41.5397 -75.7042 291° West 361 415 31,300 1,150 Climbing New Center
Sat 11:18:12 AM 41.5761 -75.8289 291° West 361 415 32,600 1,100 Climbing New Center
Sat 11:19:12 AM 41.6083 -75.9506 290° West 356 410 33,500 700 Climbing New Center
Sat 11:20:12 AM 41.6444 -76.0756 291° West 356 410 34,000 250 Climbing New Center
Sat 11:21:12 AM 41.6806 -76.1978 292° West 356 410 34,000  Level New Center
Sat 11:22:12 AM 41.7128 -76.3144 290° West 361 415 34,000  Level New Center
Sat 11:23:05 AM 41.7419 -76.4247 290° West 358 412 34,000  Level Cleveland Center
Sat 11:24:07 AM 41.7769 -76.5492 291° West 358 412 34,000  Level Cleveland Center
Sat 11:25:08 AM 41.8114 -76.6744 290° West 359 413 34,000  Level Cleveland Center
Sat 11:26:09 AM 41.8467 -76.8014 290° West 360 414 34,000  Level Cleveland Center
Sat 11:27:10 AM 41.8819 -76.9281 291° West 361 415 34,000  Level Cleveland Center
Sat 11:28:12 AM 41.9228 -77.0800 290° West 361 415 34,000  Level Cleveland Center
Sat 11:29:13 AM 41.9575 -77.2089 290° West 364 419 34,000  Level Cleveland Center
Sat 11:30:14 AM 41.9922 -77.3372 290° West 364 419 34,000  Level Cleveland Center
Sat 11:31:16 AM 42.0269 -77.4661 290° West 364 419 34,000  Level Cleveland Center
Sat 11:32:17 AM 42.0619 -77.5953 290° West 365 420 34,000  Level Cleveland Center
Sat 11:33:18 AM 42.0964 -77.7247 290° West 365 420 34,000  Level Cleveland Center
Sat 11:34:20 AM 42.1317 -77.8567 290° West 368 423 34,000  Level Cleveland Center
Sat 11:35:21 AM 42.1669 -77.9892 290° West 371 427 34,000  Level Cleveland Center
Sat 11:36:23 AM 42.2017 -78.1189 290° West 370 426 34,000  Level Cleveland Center
Sat 11:37:24 AM 42.2369 -78.2514 290° West 371 427 34,000  Level Cleveland Center
Sat 11:38:25 AM 42.2703 -78.3839 289° West 371 427 34,000  Level Cleveland Center
Sat 11:39:27 AM 42.3033 -78.5183 288° West 372 428 34,000  Level Cleveland Center
Sat 11:40:28 AM 42.3419 -78.6794 288° West 375 432 34,000  Level Cleveland Center
Sat 11:41:30 AM 42.3753 -78.8119 289° West 375 432 34,000  Level Cleveland Center
Sat 11:42:31 AM 42.4019 -78.9514 285° West 384 442 34,000  Level Cleveland Center
Sat 11:43:32 AM 42.4114 -79.0881 275° West 378 435 34,000  Level Cleveland Center
Sat 11:44:34 AM 42.4203 -79.2269 275° West 375 432 34,000  Level Cleveland Center
Sat 11:45:35 AM 42.4297 -79.3672 275° West 376 433 34,000 -488 Level Cleveland Center
Sat 11:46:37 AM 42.4383 -79.5078 275° West 377 434 33,000 -976 Descending Cleveland Center
Sat 11:47:38 AM 42.4492 -79.6736 275° West 375 432 32,000 -488 Descending Cleveland Center
Sat 11:48:40 AM 42.4567 -79.8133 274° West 376 433 32,000  Level Cleveland Center
Sat 11:49:41 AM 42.4658 -79.9619 275° West 376 433 32,000  Level Cleveland Center
Sat 11:50:43 AM 42.4736 -80.1086 274° West 378 435 32,000  Level Cleveland Center
Sat 11:51:44 AM 42.4797 -80.2494 273° West 375 432 32,000  Level Cleveland Center
Sat 11:52:45 AM 42.4897 -80.3931 275° West 377 434 32,000  Level Cleveland Center
Sat 11:53:47 AM 42.4975 -80.5378 274° West 379 436 32,000  Level Cleveland Center
Sat 11:54:48 AM 42.5050 -80.6825 274° West 382 440 32,000  Level Cleveland Center
Sat 11:55:50 AM 42.5100 -80.8314 273° West 390 449 32,000  Level Cleveland Center
Sat 11:56:51 AM 42.5142 -80.9753 272° West 386 444 32,000  Level Cleveland Center
Sat 11:57:53 AM 42.5181 -81.1206 272° West 384 442 32,000  Level Cleveland Center
Sat 11:58:54 AM 42.5228 -81.2656 273° West 385 443 32,000  Level Cleveland Center
Sat 11:59:55 AM 42.5389 -81.4103 279° West 385 443 32,000  Level Cleveland Center
Sat 12:00:57 PM 42.5558 -81.5539 279° West 385 443 32,000  Level Cleveland Center
Sat 12:01:58 PM 42.5742 -81.7231 278° West 385 443 32,000  Level Cleveland Center
Sat 12:02:59 PM 42.5875 -81.8461 278° West 385 443 32,000  Level Cleveland Center
Sat 12:04:01 PM 42.6025 -81.9892 278° West 385 443 32,000  Level Cleveland Center
Sat 12:05:02 PM 42.6217 -82.1614 279° West 386 444 32,000  Level Cleveland Center
Sat 12:06:03 PM 42.6369 -82.3056 278° West 386 444 32,000  Level Cleveland Center
Sat 12:07:05 PM 42.6528 -82.4539 278° West 396 456 32,000  Level Cleveland Center
Sat 12:08:06 PM 42.6689 -82.6072 278° West 409 471 32,000  Level Cleveland Center
Sat 12:09:07 PM 42.6856 -82.7653 278° West 421 484 32,000  Level Cleveland Center
Sat 12:10:09 PM 42.7019 -82.9242 278° West 426 490 32,000  Level Cleveland Center
Sat 12:11:10 PM 42.7178 -83.0808 278° West 426 490 32,000  Level Cleveland Center
Sat 12:12:12 PM 42.7400 -83.2703 279° West 426 490 32,000  Level Cleveland Center
Sat 12:13:13 PM 42.7578 -83.4272 279° West 426 490 32,000  Level Cleveland Center
Sat 12:14:14 PM 42.7756 -83.5844 279° West 426 490 32,000  Level Cleveland Center
Sat 12:15:16 PM 42.7944 -83.7419 279° West 426 490 32,000  Level Cleveland Center
Sat 12:16:17 PM 42.8108 -83.9000 278° West 426 490 32,000  Level Cleveland Center
Sat 12:17:18 PM 42.8186 -84.0614 274° West 426 490 32,000  Level Cleveland Center
Sat 12:18:20 PM 42.8244 -84.2222 273° West 426 490 32,000  Level Cleveland Center
Sat 12:19:21 PM 42.8308 -84.3869 273° West 427 491 32,000  Level Cleveland Center
Sat 12:20:23 PM 42.8383 -84.5808 273° West 427 491 32,000  Level Cleveland Center
Sat 12:21:24 PM 42.8431 -84.7428 272° West 428 493 32,000  Level Cleveland Center
Sat 12:22:26 PM 42.8481 -84.9050 272° West 428 493 32,000  Level Cleveland Center
Sat 12:23:18 PM 42.8381 -85.0331 264° West 432 497 32,000  Level Chicago Center
Sat 12:24:19 PM 42.8200 -85.1947 261° West 432 497 32,000  Level Chicago Center
Sat 12:25:21 PM 42.8022 -85.3564 262° West 431 496 32,000 -629 Level Chicago Center
Sat 12:26:23 PM 42.7828 -85.5192 261° West 432 497 30,700 -1,935 Descending Chicago Center
Sat 12:27:25 PM 42.7500 -85.7047 257° West 422 486 28,000 -2,439 Descending Chicago Center
Sat 12:28:26 PM 42.7219 -85.8586 256° West 421 484 25,700 -2,195 Descending Chicago Center
Sat 12:29:28 PM 42.6950 -86.0078 256° West 408 470 23,500 -2,081 Descending Chicago Center
Sat 12:30:30 PM 42.6681 -86.1550 256° West 403 464 21,400 -1,902 Descending Chicago Center
Sat 12:31:31 PM 42.6419 -86.2958 256° West 388 447 19,600 -1,220 Descending Chicago Center
Sat 12:32:33 PM 42.6150 -86.4308 255° West 374 430 18,900 -774 Descending Chicago Center
Sat 12:33:35 PM 42.5892 -86.5669 256° West 373 429 18,000 -1,073 Descending Chicago Center
Sat 12:34:36 PM 42.5614 -86.7192 256° West 374 430 16,700 -1,171 Descending Chicago Center
Sat 12:35:38 PM 42.5314 -86.8353 251° West 373 429 15,600 -1,258 Descending Chicago Center
Sat 12:36:40 PM 42.4900 -86.9900 250° West 368 423 14,100 -1,258 Descending Chicago Center
Sat 12:37:42 PM 42.4536 -87.1122 248° West 354 407 13,000 -1,171 Descending Chicago Center
Sat 12:38:43 PM 42.4211 -87.2347 250° West 349 402 11,700 -976 Descending Chicago Center
Sat 12:39:45 PM 42.3881 -87.3533 249° West 341 392 11,000 -339 Descending Chicago Center
Sat 12:40:47 PM 42.3528 -87.4850 250° West 340 391 11,000 -339 Level Chicago Center
Sat 12:41:49 PM 42.2931 -87.5842 231° Southwest 348 400 10,300 -484 Descending Chicago Center
Sat 12:42:51 PM 42.2183 -87.6636 218° Southwest 314 361 10,000 -919 Descending Chicago Center
Sat 12:43:53 PM 42.1592 -87.7256 218° Southwest 273 314 8,400 -1,463 Descending Chicago Center
Sat 12:44:54 PM 42.0972 -87.7906 218° Southwest 263 303 7,000 -683 Descending Chicago Center
Sat 12:45:56 PM 42.0908 -87.8878 265° West 261 300 7,000  Level Chicago Center
Sat 12:46:58 PM 42.0908 -87.9875 270° West 249 287 7,000 -677 Level Chicago Center
Sat 12:48:00 PM 42.0908 -88.0658 270° West 217 250 5,600 -1,452 Descending Chicago Center
Sat 12:49:02 PM 42.0792 -88.1428 258° West 224 258 4,000 -1,016 Descending Chicago Center
Sat 12:50:04 PM 42.0181 -88.1289 170° South 215 247 3,500 -581 Descending Chicago Center
Sat 12:51:06 PM 42.0011 -88.0700 111° Southeast 169 194 2,800 -732 Descending Chicago Center
Sat 12:52:07 PM 42.0011 -88.0100 90° East 152 175 2,000 -732 Descending Chicago Center
Sat 12:53:09 PM 42.0019 -87.9636 89° East 130 150 1,300 -532 Descending Chicago Center
Sat 12:54:11 PM 42.0017 -87.9142 90° East 129 148 900 -387 Descending Chicago Center

Login

Don't have an account? Register now (free) for customized features, flight alerts, and more!